Time;durP1;ratioP1;P1;durP2;ratioP2;P2;SDS_P1;SDS_P2;PMS_P1;PMS_P2;Temp;Humidity;BMP_temperature;BMP_pressure;BME280_temperature;BME280_humidity;BME280_pressure;Samples;Min_cycle;Max_cycle;Signal;HPM_P1;HPM_P2
2022/04/27 00:01:51;;;;;;;2.17;2.08;;;19.60;46.00;;;;;;5038071;28;20565;-71
2022/04/27 00:04:18;;;;;;;2.25;2.15;;;19.60;46.10;;;;;;5056097;28;20207;-71
2022/04/27 00:06:46;;;;;;;2.58;2.35;;;19.60;46.10;;;;;;5036849;28;20199;-71
2022/04/27 00:09:12;;;;;;;2.45;2.30;;;19.60;46.10;;;;;;5056049;28;20207;-71
2022/04/27 00:11:41;;;;;;;2.75;2.35;;;19.50;46.10;;;;;;5056459;28;20191;-71
2022/04/27 00:14:08;;;;;;;3.10;2.33;;;19.50;46.10;;;;;;5055870;28;20659;-71
2022/04/27 00:16:35;;;;;;;2.83;2.40;;;19.50;46.10;;;;;;5038175;28;20192;-71
2022/04/27 00:19:02;;;;;;;2.20;2.10;;;19.50;46.10;;;;;;5037972;28;20199;-71
2022/04/27 00:21:29;;;;;;;2.55;2.35;;;19.50;46.10;;;;;;5055967;28;20241;-71
2022/04/27 00:23:56;;;;;;;2.47;2.35;;;19.50;46.20;;;;;;5037927;28;20222;-71
2022/04/27 00:26:23;;;;;;;2.38;2.28;;;19.40;46.20;;;;;;5055762;28;20183;-71
2022/04/27 00:28:51;;;;;;;2.75;2.55;;;19.50;46.80;;;;;;5038090;28;20196;-71
2022/04/27 00:31:19;;;;;;;2.50;2.30;;;19.50;46.20;;;;;;5037791;28;20200;-71
2022/04/27 00:33:46;;;;;;;2.72;2.53;;;19.40;46.20;;;;;;5037808;28;20216;-71
2022/04/27 00:36:13;;;;;;;2.20;2.10;;;19.40;46.10;;;;;;5037696;28;20214;-71
2022/04/27 00:38:41;;;;;;;2.75;2.55;;;19.40;46.20;;;;;;5037545;28;20278;-71
2022/04/27 00:41:09;;;;;;;2.60;2.40;;;19.40;46.30;;;;;;5037541;28;20214;-71
2022/04/27 00:43:37;;;;;;;2.78;2.58;;;19.40;46.30;;;;;;5055240;28;20300;-71
2022/04/27 00:46:05;;;;;;;2.75;2.55;;;19.40;46.30;;;;;;5037300;28;20202;-71
2022/04/27 00:48:32;;;;;;;3.20;3.00;;;19.40;46.30;;;;;;5055684;28;20267;-71
2022/04/27 00:51:00;;;;;;;2.63;2.40;;;19.40;46.30;;;;;;5055199;28;20264;-71
2022/04/27 00:53:28;;;;;;;2.47;2.33;;;19.40;46.30;;;;;;5037207;28;20273;-71
2022/04/27 00:55:55;;;;;;;2.88;2.67;;;19.30;46.20;;;;;;5037307;28;20211;-71
2022/04/27 00:58:22;;;;;;;2.63;2.42;;;19.30;46.30;;;;;;5037257;28;20195;-72
2022/04/27 01:00:50;;;;;;;2.70;2.50;;;19.30;46.30;;;;;;5037325;28;20199;-71
2022/04/27 01:03:19;;;;;;;2.30;2.20;;;19.30;46.90;;;;;;5037209;28;20225;-71
2022/04/27 01:05:46;;;;;;;2.40;2.30;;;19.30;46.30;;;;;;5037587;28;20191;-71
2022/04/27 01:08:14;;;;;;;2.83;2.63;;;19.30;46.20;;;;;;5037507;28;20203;-71
2022/04/27 01:10:41;;;;;;;2.83;2.63;;;19.30;46.20;;;;;;5037841;28;20199;-71
2022/04/27 01:13:08;;;;;;;2.70;2.50;;;19.30;46.30;;;;;;5049636;28;20715;-71
2022/04/27 01:15:36;;;;;;;2.90;2.70;;;19.30;46.30;;;;;;5049217;28;20234;-71
2022/04/27 01:18:03;;;;;;;2.63;2.45;;;19.20;46.20;;;;;;5048525;28;20222;-71
2022/04/27 01:20:37;;;;;;;2.70;2.47;;;19.20;46.40;;;;;;5037678;28;20198;-71
2022/04/27 01:23:05;;;;;;;2.78;2.58;;;19.30;46.40;;;;;;5037551;28;20635;-71
2022/04/27 01:25:52;;;;;;;3.20;2.90;;;19.20;46.40;;;;;;5037266;28;20672;-71
2022/04/27 01:28:21;;;;;;;2.85;2.63;;;19.20;46.40;;;;;;5036968;28;20286;-72
2022/04/27 01:30:48;;;;;;;3.17;2.97;;;19.20;46.40;;;;;;5036737;28;20741;-71
2022/04/27 01:33:15;;;;;;;3.00;2.80;;;19.20;47.00;;;;;;5036564;28;20310;-71
2022/04/27 01:35:44;;;;;;;3.05;2.85;;;19.20;46.40;;;;;;5036697;28;20302;-71
2022/04/27 01:38:11;;;;;;;3.22;3.03;;;19.20;46.40;;;;;;5036638;28;20648;-71
2022/04/27 01:40:38;;;;;;;3.00;2.80;;;19.20;46.40;;;;;;5036454;28;20256;-71
2022/04/27 01:43:05;;;;;;;2.92;2.72;;;19.20;46.50;;;;;;5036454;28;20215;-71
2022/04/27 01:45:32;;;;;;;2.92;2.72;;;19.20;46.50;;;;;;5036356;28;20207;-71
2022/04/27 01:47:59;;;;;;;3.45;3.15;;;19.20;46.60;;;;;;5036340;28;20651;-71
2022/04/27 01:50:26;;;;;;;3.00;2.80;;;19.20;47.20;;;;;;5036407;28;20564;-71
2022/04/27 01:55:39;;;;;;;3.20;2.88;;;19.20;46.60;;;;;;5036304;28;20207;-71
2022/04/27 01:58:07;;;;;;;2.90;2.70;;;19.10;46.60;;;;;;5036113;28;20245;-71
2022/04/27 02:00:34;;;;;;;3.58;3.28;;;19.10;46.50;;;;;;5035985;28;20201;-71
2022/04/27 02:03:02;;;;;;;3.03;2.83;;;19.10;46.60;;;;;;5035948;28;20316;-71
2022/04/27 02:05:28;;;;;;;3.08;2.88;;;19.10;46.50;;;;;;5036327;28;20303;-71
2022/04/27 02:07:57;;;;;;;2.50;2.30;;;19.10;46.60;;;;;;5035998;28;20236;-71
2022/04/27 02:10:24;;;;;;;2.30;2.20;;;19.10;46.60;;;;;;5036083;28;20195;-71
2022/04/27 02:12:51;;;;;;;2.95;2.75;;;19.10;46.70;;;;;;5035983;28;20707;-71
2022/04/27 02:15:23;;;;;;;2.85;2.65;;;19.10;46.60;;;;;;5036017;28;20207;-72
2022/04/27 02:18:03;;;;;;;2.63;2.42;;;19.10;46.70;;;;;;5036089;28;20206;-71
2022/04/27 02:20:31;;;;;;;3.10;2.90;;;19.10;46.70;;;;;;5036023;28;20221;-71
2022/04/27 02:22:59;;;;;;;2.40;2.30;;;19.10;46.70;;;;;;5035977;28;20306;-71
2022/04/27 02:25:26;;;;;;;2.85;2.65;;;19.10;46.70;;;;;;5036656;28;20198;-71
2022/04/27 02:27:53;;;;;;;2.80;2.60;;;19.00;46.70;;;;;;5036400;28;20195;-71
2022/04/27 02:30:21;;;;;;;3.28;3.08;;;19.10;47.30;;;;;;5035697;28;20198;-71
2022/04/27 02:32:48;;;;;;;3.25;3.05;;;19.10;46.80;;;;;;5036134;28;20675;-71
2022/04/27 02:35:17;;;;;;;3.25;3.05;;;19.00;46.60;;;;;;5036141;28;20215;-71
2022/04/27 02:37:45;;;;;;;2.80;2.60;;;19.00;46.70;;;;;;5036187;28;20196;-71
2022/04/27 02:40:14;;;;;;;2.80;2.60;;;19.00;46.70;;;;;;5053430;28;20237;-71
2022/04/27 02:42:41;;;;;;;3.17;2.97;;;19.10;46.80;;;;;;5036199;28;20325;-71
2022/04/27 02:45:11;;;;;;;2.80;2.60;;;19.00;46.70;;;;;;5035993;28;20668;-71
2022/04/27 02:47:38;;;;;;;3.13;2.83;;;19.00;46.70;;;;;;5036006;28;20199;-71
2022/04/27 02:52:56;;;;;;;3.28;3.08;;;19.00;46.80;;;;;;5035964;28;20211;-71
2022/04/27 02:55:34;;;;;;;3.05;2.85;;;19.00;46.80;;;;;;5036004;28;20215;-71
2022/04/27 02:58:02;;;;;;;3.10;2.90;;;19.00;47.40;;;;;;5035354;28;20283;-71
2022/04/27 03:00:31;;;;;;;2.60;2.45;;;19.00;46.80;;;;;;5035583;28;20199;-71
2022/04/27 03:03:01;;;;;;;3.25;3.05;;;19.00;46.80;;;;;;5035195;28;20231;-71
2022/04/27 03:05:28;;;;;;;3.50;3.20;;;19.00;46.80;;;;;;5035273;28;20245;-71
2022/04/27 03:07:55;;;;;;;3.50;3.30;;;19.00;46.80;;;;;;5035312;28;20608;-71
2022/04/27 03:10:25;;;;;;;3.30;3.10;;;19.00;46.80;;;;;;5035410;28;20200;-71
2022/04/27 03:12:54;;;;;;;3.75;3.45;;;19.00;46.80;;;;;;5035185;28;20642;-71
2022/04/27 03:15:22;;;;;;;4.10;3.70;;;19.00;46.80;;;;;;5035054;28;20218;-71
2022/04/27 03:18:16;;;;;;;2.97;2.78;;;19.00;46.80;;;;;;5035215;28;20245;-71
2022/04/27 03:20:37;;;;;;;3.42;3.22;;;19.00;46.80;;;;;;5035085;28;20199;-71
2022/04/27 03:23:04;;;;;;;3.40;3.15;;;18.90;46.70;;;;;;5035344;28;20683;-71
2022/04/27 03:25:33;;;;;;;3.40;3.20;;;19.00;46.80;;;;;;5035566;28;20192;-71
2022/04/27 03:28:04;;;;;;;3.67;3.38;;;19.00;46.80;;;;;;5035627;28;20208;-71
2022/04/27 03:30:31;;;;;;;3.45;3.15;;;19.00;46.80;;;;;;5035268;28;20302;-71
2022/04/27 03:33:01;;;;;;;3.78;3.47;;;19.00;46.80;;;;;;5035268;28;20235;-71
2022/04/27 03:35:31;;;;;;;3.75;3.53;;;19.00;46.70;;;;;;5035127;28;20222;-71
2022/04/27 03:37:58;;;;;;;3.13;2.92;;;19.00;46.70;;;;;;5035207;28;20191;-71
2022/04/27 03:40:25;;;;;;;3.42;3.22;;;19.00;46.60;;;;;;5037218;28;20206;-71
2022/04/27 03:42:53;;;;;;;3.22;3.03;;;19.00;46.60;;;;;;5039016;28;20219;-71
2022/04/27 03:45:22;;;;;;;4.25;3.95;;;19.00;46.50;;;;;;5039452;28;20203;-71
2022/04/27 03:47:52;;;;;;;3.28;2.95;;;19.00;46.50;;;;;;5039463;28;20195;-71
2022/04/27 03:50:21;;;;;;;3.75;3.45;;;19.00;46.50;;;;;;5038960;28;20207;-71
2022/04/27 03:52:52;;;;;;;3.35;3.15;;;19.00;46.50;;;;;;5039102;28;20222;-71
2022/04/27 03:55:19;;;;;;;3.83;3.53;;;19.00;46.50;;;;;;5040223;28;20544;-72
2022/04/27 03:57:48;;;;;;;3.17;2.97;;;19.10;46.50;;;;;;5039196;28;20282;-71
2022/04/27 04:00:18;;;;;;;4.25;3.95;;;19.10;46.60;;;;;;5038902;28;20245;-71
2022/04/27 04:02:51;;;;;;;3.90;3.60;;;19.00;46.60;;;;;;5038781;28;20223;-71
2022/04/27 04:05:19;;;;;;;3.13;2.92;;;19.10;46.60;;;;;;5038874;28;20725;-71
2022/04/27 04:07:46;;;;;;;3.10;2.90;;;19.10;46.50;;;;;;5038934;28;20226;-71
2022/04/27 04:10:13;;;;;;;3.92;3.63;;;19.10;46.50;;;;;;5038472;28;20199;-71
2022/04/27 04:12:45;;;;;;;3.80;3.50;;;19.10;46.50;;;;;;5038843;28;20268;-71
2022/04/27 04:15:37;;;;;;;3.78;3.45;;;19.10;46.50;;;;;;5018617;28;20216;-71
2022/04/27 04:18:23;;;;;;;3.50;3.30;;;19.10;46.50;;;;;;5057025;28;20187;-71
2022/04/27 04:21:14;;;;;;;3.80;3.50;;;19.10;46.50;;;;;;5038729;28;20195;-71
2022/04/27 04:24:00;;;;;;;3.55;3.25;;;19.10;46.50;;;;;;5038203;28;20721;-71
2022/04/27 04:29:16;;;;;;;3.83;3.53;;;19.10;46.40;;;;;;5038233;28;20613;-71
2022/04/27 04:31:43;;;;;;;4.05;3.75;;;19.10;46.40;;;;;;5038029;28;20229;-71
2022/04/27 04:34:37;;;;;;;4.10;3.80;;;19.20;46.40;;;;;;5025103;28;20286;-72
2022/04/27 04:37:06;;;;;;;4.05;3.75;;;19.20;46.40;;;;;;5037829;28;20283;-72
2022/04/27 04:42:17;;;;;;;4.30;3.92;;;19.20;46.40;;;;;;5066170;23;20576;-70
2022/04/27 04:44:44;;;;;;;5.03;4.63;;;19.20;46.40;;;;;;5014839;28;20250;-70
2022/04/27 04:47:43;;;;;;;4.78;4.38;;;19.20;46.50;;;;;;5005682;28;20197;-70
2022/04/27 04:50:35;;;;;;;4.18;3.78;;;19.20;46.70;;;;;;5017919;28;20220;-70
2022/04/27 04:53:20;;;;;;;4.25;3.90;;;19.30;46.70;;;;;;5034031;28;20196;-70
2022/04/27 04:56:06;;;;;;;3.92;3.63;;;19.30;46.70;;;;;;5035692;28;20328;-70
2022/04/27 04:59:02;;;;;;;5.85;4.90;;;19.30;46.70;;;;;;4981845;28;20683;-70
2022/04/27 05:01:39;;;;;;;4.63;4.25;;;19.30;46.90;;;;;;5035847;28;20302;-70
2022/04/27 05:04:33;;;;;;;4.07;3.78;;;19.30;46.80;;;;;;5035553;28;20279;-70
2022/04/27 05:07:21;;;;;;;4.85;4.45;;;19.40;46.80;;;;;;5030672;28;20204;-70
2022/04/27 05:10:08;;;;;;;4.72;4.32;;;19.30;46.90;;;;;;5035789;28;20659;-70
2022/04/27 05:12:40;;;;;;;4.35;4.00;;;19.40;47.30;;;;;;5035577;28;20625;-70
2022/04/27 05:15:09;;;;;;;4.80;4.22;;;19.40;47.20;;;;;;5035409;28;20755;-71
2022/04/27 05:17:59;;;;;;;5.90;4.93;;;19.40;47.30;;;;;;5008650;28;20204;-72
2022/04/27 05:20:48;;;;;;;5.32;4.28;;;19.40;47.50;;;;;;5033817;28;20742;-72
2022/04/27 05:23:39;;;;;;;4.68;3.83;;;19.40;47.00;;;;;;4997953;28;20291;-72
2022/04/27 05:26:29;;;;;;;3.30;3.10;;;19.40;46.90;;;;;;5006998;28;20200;-70
2022/04/27 05:32:41;;;;;;;4.85;4.45;;;19.40;46.80;;;;;;4974542;28;20177;-72
2022/04/27 05:35:28;;;;;;;3.38;3.17;;;19.40;46.80;;;;;;5028038;28;20342;-72
2022/04/27 05:38:11;;;;;;;4.75;4.35;;;19.40;46.80;;;;;;5033368;28;20671;-72
2022/04/27 05:40:58;;;;;;;4.10;3.80;;;19.40;46.60;;;;;;5034794;28;20230;-72
2022/04/27 05:43:54;;;;;;;4.68;4.10;;;19.50;46.70;;;;;;5017247;28;20196;-71
2022/04/27 05:46:35;;;;;;;4.72;4.32;;;19.50;46.60;;;;;;5033192;28;20192;-71
2022/04/27 05:52:20;;;;;;;5.38;4.88;;;19.50;46.60;;;;;;5168482;23;20748;-71
2022/04/27 05:55:06;;;;;;;5.07;4.60;;;19.50;46.50;;;;;;5015389;28;20192;-71
2022/04/27 05:57:46;;;;;;;5.57;4.95;;;19.50;46.40;;;;;;5013329;28;20216;-72
2022/04/27 06:00:46;;;;;;;4.78;4.40;;;19.60;46.30;;;;;;5016810;28;20220;-71
2022/04/27 06:03:26;;;;;;;5.60;5.13;;;19.60;46.20;;;;;;5013467;28;20586;-71
2022/04/27 06:05:57;;;;;;;5.00;4.60;;;19.60;46.10;;;;;;5013740;28;20231;-71
2022/04/27 06:08:24;;;;;;;5.57;5.03;;;19.60;46.00;;;;;;5030144;28;20295;-71
2022/04/27 06:10:54;;;;;;;5.47;5.07;;;19.70;46.10;;;;;;5029660;28;20220;-72
2022/04/27 06:13:24;;;;;;;5.28;4.78;;;19.60;46.00;;;;;;5026457;28;20201;-71
2022/04/27 06:16:07;;;;;;;5.95;5.45;;;19.70;46.00;;;;;;5023878;28;20193;-71
2022/04/27 06:18:50;;;;;;;5.75;5.15;;;19.70;46.00;;;;;;5013958;28;20196;-72
2022/04/27 06:21:18;;;;;;;4.90;4.50;;;19.70;46.00;;;;;;5013465;28;20217;-71
2022/04/27 06:23:45;;;;;;;5.35;4.95;;;19.80;45.80;;;;;;5013217;28;20287;-71
2022/04/27 06:26:13;;;;;;;6.00;5.40;;;19.90;45.70;;;;;;5029076;28;20201;-71
2022/04/27 06:28:45;;;;;;;5.80;5.30;;;19.90;45.70;;;;;;5013104;28;20203;-71
2022/04/27 06:31:12;;;;;;;5.80;5.30;;;19.90;45.70;;;;;;5012832;28;20681;-71
2022/04/27 06:33:39;;;;;;;5.05;4.65;;;20.00;45.50;;;;;;5012776;28;20245;-71
2022/04/27 06:36:06;;;;;;;5.63;5.13;;;20.00;45.40;;;;;;5029066;28;20189;-71
2022/04/27 06:38:34;;;;;;;5.18;4.78;;;20.00;45.30;;;;;;5013655;28;20227;-71
2022/04/27 06:41:08;;;;;;;5.78;4.65;;;20.10;45.20;;;;;;5029768;28;20239;-71
2022/04/27 06:43:56;;;;;;;5.53;5.03;;;20.10;44.90;;;;;;5013702;28;20200;-71
2022/04/27 06:46:41;;;;;;;6.28;5.75;;;20.20;45.00;;;;;;5014276;28;20653;-71
2022/04/27 06:49:27;;;;;;;5.25;4.75;;;20.30;45.10;;;;;;5014007;28;20191;-71
2022/04/27 06:52:13;;;;;;;5.53;5.03;;;20.50;44.90;;;;;;5013389;28;20231;-71
2022/04/27 06:54:58;;;;;;;4.60;4.20;;;20.70;44.50;;;;;;5013905;28;20776;-71
2022/04/27 06:57:54;;;;;;;4.28;3.90;;;20.80;44.20;;;;;;5013412;28;20697;-71
2022/04/27 07:00:25;;;;;;;5.20;4.70;;;20.90;44.00;;;;;;5012407;28;20226;-71
2022/04/27 07:02:52;;;;;;;4.47;4.07;;;20.90;43.50;;;;;;5028700;28;20279;-71
2022/04/27 07:05:20;;;;;;;4.80;4.40;;;20.90;43.50;;;;;;5012092;28;20198;-71
2022/04/27 07:07:47;;;;;;;4.95;4.45;;;20.90;43.40;;;;;;5012401;28;20229;-71
2022/04/27 07:10:15;;;;;;;5.05;4.65;;;20.80;43.40;;;;;;5028986;28;20197;-70
2022/04/27 07:12:43;;;;;;;5.18;4.78;;;20.80;43.40;;;;;;5012265;28;20640;-71
2022/04/27 07:15:10;;;;;;;5.00;4.60;;;20.80;43.40;;;;;;5013728;28;20197;-71
2022/04/27 07:17:39;;;;;;;5.25;4.80;;;20.80;43.40;;;;;;5015934;28;20213;-71
2022/04/27 07:20:07;;;;;;;5.20;4.70;;;20.80;43.80;;;;;;5015816;28;20624;-71
2022/04/27 07:22:35;;;;;;;4.72;4.32;;;20.70;43.40;;;;;;5016010;28;20262;-71
2022/04/27 07:25:01;;;;;;;5.20;4.80;;;20.70;43.40;;;;;;5017448;28;20193;-71
2022/04/27 07:27:31;;;;;;;4.90;4.50;;;20.70;43.40;;;;;;5016040;28;20296;-71
2022/04/27 07:29:58;;;;;;;4.88;4.43;;;20.70;43.40;;;;;;5032222;28;20226;-72
2022/04/27 07:32:25;;;;;;;4.00;3.70;;;20.60;43.50;;;;;;5015983;28;20216;-71
2022/04/27 07:34:54;;;;;;;3.63;3.33;;;20.60;43.60;;;;;;5017367;28;20222;-71
2022/04/27 07:37:21;;;;;;;4.18;3.88;;;20.60;43.60;;;;;;5015708;28;20230;-71
2022/04/27 07:39:49;;;;;;;4.20;3.88;;;20.60;43.60;;;;;;5015607;28;20773;-71
2022/04/27 07:42:16;;;;;;;4.00;3.60;;;20.60;43.60;;;;;;5016974;28;20212;-71
2022/04/27 07:44:43;;;;;;;4.20;3.90;;;20.60;43.90;;;;;;5015976;28;20201;-71
2022/04/27 07:47:13;;;;;;;4.10;3.70;;;20.60;44.50;;;;;;5016952;28;20272;-71
2022/04/27 07:49:40;;;;;;;4.10;3.70;;;20.60;43.80;;;;;;5017759;28;20197;-70
2022/04/27 07:52:08;;;;;;;4.25;3.85;;;20.70;43.70;;;;;;5018671;28;20251;-71
2022/04/27 07:54:35;;;;;;;4.88;3.60;;;20.70;43.60;;;;;;5018494;28;20211;-71
2022/04/27 07:57:02;;;;;;;3.83;3.53;;;20.70;43.40;;;;;;5016647;28;20262;-71
2022/04/27 07:59:30;;;;;;;4.10;3.80;;;20.80;43.40;;;;;;5016358;28;20721;-70
2022/04/27 08:01:57;;;;;;;3.85;3.53;;;20.80;43.20;;;;;;5032250;28;20605;-70
2022/04/27 08:04:24;;;;;;;4.13;3.75;;;20.90;43.10;;;;;;5015689;28;20220;-71
2022/04/27 08:06:51;;;;;;;4.07;3.67;;;21.00;43.10;;;;;;5015400;28;20196;-71
2022/04/27 08:09:19;;;;;;;3.83;3.47;;;21.00;43.10;;;;;;5015931;28;20196;-71
2022/04/27 08:11:47;;;;;;;4.53;3.92;;;21.10;43.00;;;;;;5016760;28;20287;-71
2022/04/27 08:14:14;;;;;;;3.78;3.47;;;21.10;43.50;;;;;;5016693;28;20189;-70
2022/04/27 08:16:41;;;;;;;3.85;3.55;;;21.20;42.80;;;;;;5015915;28;20193;-71
2022/04/27 08:19:08;;;;;;;4.18;3.88;;;21.20;42.70;;;;;;5017403;28;20195;-71
2022/04/27 08:21:35;;;;;;;3.60;3.30;;;21.20;42.50;;;;;;5031996;28;20406;-71
2022/04/27 08:24:06;;;;;;;3.97;3.67;;;21.20;42.40;;;;;;5016521;28;20228;-71
2022/04/27 08:26:35;;;;;;;3.78;3.47;;;21.20;42.30;;;;;;5031026;28;20197;-71
2022/04/27 08:29:02;;;;;;;4.00;3.70;;;21.20;42.40;;;;;;5014905;28;20292;-71
2022/04/27 08:31:29;;;;;;;3.53;3.22;;;21.20;42.50;;;;;;5016343;28;20703;-71
2022/04/27 08:33:56;;;;;;;3.10;2.90;;;21.20;42.30;;;;;;5014971;28;20212;-71
2022/04/27 08:36:23;;;;;;;3.97;3.67;;;21.20;42.50;;;;;;5015302;28;20226;-71
2022/04/27 08:38:51;;;;;;;4.22;3.92;;;21.20;42.50;;;;;;5015410;28;20232;-71
2022/04/27 08:41:18;;;;;;;4.45;4.05;;;21.30;42.40;;;;;;5029895;28;20223;-71
2022/04/27 08:43:46;;;;;;;3.95;3.58;;;21.30;42.30;;;;;;5039495;28;20205;-71
2022/04/27 08:46:14;;;;;;;4.40;4.00;;;21.40;42.40;;;;;;5015375;28;20201;-71
2022/04/27 08:48:41;;;;;;;3.97;3.67;;;21.40;42.20;;;;;;5017099;28;20631;-71
2022/04/27 08:51:08;;;;;;;3.97;3.63;;;21.50;42.20;;;;;;5014458;28;20232;-71
2022/04/27 08:53:35;;;;;;;3.35;3.10;;;21.50;42.10;;;;;;5016418;28;20193;-71
2022/04/27 08:56:02;;;;;;;3.95;3.65;;;21.50;42.10;;;;;;5014887;28;20615;-70
2022/04/27 08:58:29;;;;;;;3.72;3.42;;;21.50;42.20;;;;;;5016114;28;20244;-71
2022/04/27 09:00:59;;;;;;;3.70;3.40;;;21.50;42.10;;;;;;5014768;28;20240;-71
2022/04/27 09:03:28;;;;;;;3.65;3.35;;;21.50;42.10;;;;;;5014727;28;20253;-71
2022/04/27 09:05:58;;;;;;;3.45;3.25;;;21.50;42.10;;;;;;5014823;28;20193;-70
2022/04/27 09:08:25;;;;;;;3.10;2.90;;;21.50;41.80;;;;;;5019468;28;20272;-71
2022/04/27 09:11:25;;;;;;;3.75;3.45;;;21.60;42.00;;;;;;5018273;28;20572;-71
2022/04/27 09:13:53;;;;;;;2.90;2.70;;;21.60;42.30;;;;;;5032088;28;20201;-71
2022/04/27 09:16:23;;;;;;;3.30;3.10;;;21.60;42.10;;;;;;5015373;28;20260;-71
2022/04/27 09:21:59;;;;;;;3.10;2.90;;;21.60;41.60;;;;;;5014370;28;20606;-71
2022/04/27 09:24:27;;;;;;;3.40;3.10;;;21.60;41.60;;;;;;5013992;28;20658;-71
2022/04/27 09:27:03;;;;;;;3.20;2.90;;;21.60;41.50;;;;;;5030503;28;20634;-71
2022/04/27 09:29:30;;;;;;;2.92;2.72;;;21.60;41.50;;;;;;5013551;28;20626;-71
2022/04/27 09:31:59;;;;;;;2.90;2.40;;;21.60;41.40;;;;;;5013718;28;20254;-71
2022/04/27 09:34:28;;;;;;;2.78;2.58;;;21.60;41.50;;;;;;5013546;28;20211;-71
2022/04/27 09:36:55;;;;;;;2.70;2.50;;;21.60;41.60;;;;;;5013629;28;20222;-71
2022/04/27 09:39:23;;;;;;;2.78;2.58;;;21.60;41.40;;;;;;5013366;28;20657;-71
2022/04/27 09:41:50;;;;;;;2.83;2.63;;;21.70;41.50;;;;;;5014630;28;20205;-71
2022/04/27 09:44:28;;;;;;;3.05;2.75;;;21.60;41.80;;;;;;5029846;28;20209;-70
2022/04/27 09:46:55;;;;;;;2.65;2.45;;;21.60;42.50;;;;;;5014645;28;20196;-71
2022/04/27 09:49:23;;;;;;;3.00;2.80;;;21.60;41.90;;;;;;5013452;28;20227;-71
2022/04/27 09:51:51;;;;;;;2.50;2.30;;;21.60;42.10;;;;;;5029926;28;20220;-71
2022/04/27 09:54:19;;;;;;;2.63;2.50;;;21.60;42.20;;;;;;5013427;28;20252;-71
2022/04/27 09:56:51;;;;;;;2.55;2.35;;;21.60;41.90;;;;;;5013891;28;20200;-72
2022/04/27 09:59:20;;;;;;;2.63;2.42;;;21.60;41.80;;;;;;5013298;28;20308;-70
2022/04/27 10:01:47;;;;;;;2.78;2.58;;;21.60;41.40;;;;;;5013195;28;20217;-71
2022/04/27 10:04:14;;;;;;;3.15;2.90;;;21.60;41.50;;;;;;5013409;28;20197;-70
2022/04/27 10:06:43;;;;;;;3.15;2.67;;;21.70;41.50;;;;;;5014463;28;20215;-71
2022/04/27 10:09:10;;;;;;;2.78;2.58;;;21.70;41.30;;;;;;5012973;28;20193;-71
2022/04/27 10:11:37;;;;;;;2.30;2.20;;;21.80;41.30;;;;;;5012775;28;20300;-71
2022/04/27 10:14:04;;;;;;;2.70;2.50;;;21.80;41.20;;;;;;5014301;28;20188;-71
2022/04/27 10:16:31;;;;;;;2.13;2.03;;;21.90;41.30;;;;;;5012831;28;20196;-71
2022/04/27 10:18:58;;;;;;;2.70;2.50;;;21.90;41.30;;;;;;5012626;28;20220;-71
2022/04/27 10:21:39;;;;;;;2.53;2.33;;;22.00;41.10;;;;;;5012746;28;20227;-71
2022/04/27 10:24:08;;;;;;;2.35;2.17;;;22.00;41.00;;;;;;5014189;28;20188;-71
2022/04/27 10:26:35;;;;;;;2.22;2.10;;;22.00;40.80;;;;;;5012795;28;20201;-71
2022/04/27 10:29:05;;;;;;;2.15;1.95;;;21.90;40.60;;;;;;5012734;28;20193;-71
2022/04/27 10:31:57;;;;;;;2.20;2.10;;;22.00;40.60;;;;;;5013005;28;20709;-70
2022/04/27 10:34:25;;;;;;;2.08;1.98;;;22.00;40.50;;;;;;5014088;28;20185;-71
2022/04/27 10:36:52;;;;;;;2.00;1.90;;;22.00;40.60;;;;;;5029042;28;20259;-71
2022/04/27 10:39:24;;;;;;;2.20;2.10;;;22.00;41.00;;;;;;5013960;28;20558;-71
2022/04/27 10:41:56;;;;;;;2.13;2.03;;;22.00;40.60;;;;;;5012319;28;20227;-71
2022/04/27 10:44:34;;;;;;;2.20;2.10;;;22.00;40.90;;;;;;5013887;28;20196;-71
2022/04/27 10:47:14;;;;;;;2.05;1.95;;;22.00;40.60;;;;;;5012117;28;20665;-71
2022/04/27 10:49:41;;;;;;;2.10;2.00;;;22.00;40.60;;;;;;5028356;28;20216;-71
2022/04/27 10:52:09;;;;;;;2.20;2.10;;;22.00;40.70;;;;;;5028796;28;20277;-71
2022/04/27 10:54:38;;;;;;;2.03;1.92;;;22.00;40.70;;;;;;5028902;28;20204;-71
2022/04/27 10:57:41;;;;;;;1.90;1.80;;;22.00;40.50;;;;;;5013717;28;20197;-71
2022/04/27 11:00:09;;;;;;;1.80;1.70;;;21.90;40.40;;;;;;5012335;28;20219;-71
2022/04/27 11:02:37;;;;;;;2.33;2.20;;;22.00;40.40;;;;;;5028688;28;20296;-71
2022/04/27 11:05:20;;;;;;;2.35;2.25;;;21.90;40.40;;;;;;5012380;28;20683;-71
2022/04/27 11:07:51;;;;;;;2.40;2.20;;;22.00;41.20;;;;;;5013552;28;20180;-71
2022/04/27 11:10:21;;;;;;;2.10;2.00;;;22.00;40.40;;;;;;5028311;28;20240;-72
2022/04/27 11:12:49;;;;;;;2.10;2.00;;;22.00;40.60;;;;;;5019569;28;20184;-70
2022/04/27 11:15:18;;;;;;;2.30;2.10;;;22.00;40.40;;;;;;5012250;28;20205;-71
2022/04/27 11:17:55;;;;;;;2.35;2.25;;;22.00;40.40;;;;;;5012452;28;20290;-71
2022/04/27 11:20:24;;;;;;;2.30;2.20;;;22.00;40.40;;;;;;5011949;28;20220;-71
2022/04/27 11:22:51;;;;;;;2.38;2.25;;;22.10;40.40;;;;;;5012060;28;20197;-71
2022/04/27 11:25:30;;;;;;;2.20;2.00;;;22.10;40.30;;;;;;5028444;28;20661;-71
2022/04/27 11:27:58;;;;;;;1.98;1.88;;;22.10;40.20;;;;;;5012164;28;20189;-71
2022/04/27 11:30:26;;;;;;;2.47;2.28;;;22.10;40.30;;;;;;5011926;28;20217;-71
2022/04/27 11:32:53;;;;;;;2.20;2.05;;;22.10;40.20;;;;;;5012013;28;20685;-71
2022/04/27 11:35:23;;;;;;;2.10;2.00;;;22.20;40.20;;;;;;5028491;28;20208;-71
2022/04/27 11:37:52;;;;;;;2.30;2.20;;;22.20;40.10;;;;;;5011863;28;20599;-71
2022/04/27 11:40:20;;;;;;;2.08;1.98;;;22.30;40.00;;;;;;5012027;28;20220;-71
2022/04/27 11:42:49;;;;;;;2.30;2.10;;;22.30;40.00;;;;;;5013196;28;20189;-71
2022/04/27 11:45:19;;;;;;;2.50;2.30;;;22.30;40.00;;;;;;5011711;28;20578;-71
2022/04/27 11:47:55;;;;;;;2.60;2.40;;;22.40;40.00;;;;;;5013267;28;20184;-71
2022/04/27 11:50:23;;;;;;;2.30;2.20;;;22.40;39.90;;;;;;5011431;28;20221;-71
2022/04/27 11:52:58;;;;;;;2.28;2.10;;;22.40;39.90;;;;;;5013456;28;20185;-71
2022/04/27 11:55:25;;;;;;;2.03;1.92;;;22.40;39.70;;;;;;5011670;28;20220;-71
2022/04/27 11:57:53;;;;;;;1.90;1.80;;;22.40;39.70;;;;;;5012997;28;20193;-71
2022/04/27 12:00:21;;;;;;;2.30;2.10;;;22.50;39.60;;;;;;5028363;28;20328;-71
2022/04/27 12:05:40;;;;;;;1.90;1.80;;;22.50;39.60;;;;;;5028300;23;20233;-68
2022/04/27 12:08:09;;;;;;;2.20;2.10;;;22.50;39.80;;;;;;5015300;28;20189;-68
2022/04/27 12:10:40;;;;;;;2.10;2.00;;;22.50;39.70;;;;;;5015183;28;20239;-68
2022/04/27 12:13:09;;;;;;;2.05;1.95;;;22.50;39.60;;;;;;5015152;28;20203;-68
2022/04/27 12:15:36;;;;;;;2.17;2.08;;;22.60;40.00;;;;;;5034495;28;20208;-67
2022/04/27 12:18:03;;;;;;;2.10;2.00;;;22.60;39.90;;;;;;5036167;28;20212;-68
2022/04/27 12:20:36;;;;;;;1.85;1.75;;;22.60;39.90;;;;;;5036241;28;20202;-67
2022/04/27 12:23:05;;;;;;;2.30;2.20;;;22.60;39.90;;;;;;5035728;28;20189;-68
2022/04/27 12:25:41;;;;;;;2.20;2.10;;;22.60;39.50;;;;;;5035588;28;20227;-68
2022/04/27 12:28:11;;;;;;;2.10;2.00;;;22.70;39.60;;;;;;5035979;28;20172;-68
2022/04/27 12:30:43;;;;;;;2.08;1.98;;;22.70;39.50;;;;;;5035550;28;20246;-67
2022/04/27 12:33:10;;;;;;;1.80;1.70;;;22.70;39.40;;;;;;5034240;28;20200;-67
2022/04/27 12:38:23;;;;;;;2.00;1.90;;;22.70;39.80;;;;;;5034257;28;20212;-68
2022/04/27 12:40:50;;;;;;;1.90;1.80;;;22.70;39.40;;;;;;5035331;28;20206;-68
2022/04/27 12:43:20;;;;;;;1.80;1.70;;;22.70;39.60;;;;;;5034183;28;20671;-68
2022/04/27 12:46:04;;;;;;;1.98;1.83;;;22.70;39.80;;;;;;5035590;28;20626;-68
2022/04/27 12:48:32;;;;;;;2.10;2.00;;;22.80;39.80;;;;;;5034086;28;20208;-68
2022/04/27 12:50:59;;;;;;;2.28;2.17;;;22.80;39.30;;;;;;5034061;28;20568;-67
2022/04/27 12:53:26;;;;;;;2.10;2.00;;;22.80;39.20;;;;;;5033978;28;20287;-68
2022/04/27 12:56:07;;;;;;;2.05;1.95;;;22.80;39.20;;;;;;5033940;28;20196;-68
2022/04/27 12:58:35;;;;;;;2.00;1.90;;;22.70;39.30;;;;;;5034034;28;20246;-68
2022/04/27 13:01:03;;;;;;;2.13;2.03;;;22.70;39.20;;;;;;5034836;28;20200;-73
2022/04/27 13:03:30;;;;;;;2.10;2.00;;;22.70;39.20;;;;;;5034415;28;20661;-71
2022/04/27 13:05:59;;;;;;;2.20;2.00;;;22.70;39.80;;;;;;5034164;28;20203;-71
2022/04/27 13:08:26;;;;;;;2.20;2.00;;;22.60;39.10;;;;;;5073161;23;20282;-70
2022/04/27 13:13:39;;;;;;;2.20;2.10;;;22.60;39.50;;;;;;5016195;28;20677;-67
2022/04/27 13:16:06;;;;;;;2.10;1.90;;;22.50;39.50;;;;;;5033894;28;20192;-67
2022/04/27 13:18:33;;;;;;;2.40;2.20;;;22.50;39.90;;;;;;5034768;28;20727;-67
2022/04/27 13:21:00;;;;;;;2.85;2.28;;;22.50;40.20;;;;;;5033938;28;20207;-67
2022/04/27 13:23:27;;;;;;;2.35;2.25;;;22.50;40.20;;;;;;5033586;28;20667;-67
2022/04/27 13:25:54;;;;;;;2.78;2.10;;;22.40;40.40;;;;;;5033547;28;20196;-67
2022/04/27 13:28:22;;;;;;;3.65;2.60;;;22.50;41.30;;;;;;5033485;28;20196;-67
2022/04/27 13:30:50;;;;;;;2.97;2.28;;;22.40;40.90;;;;;;5034751;28;20184;-67
2022/04/27 13:33:17;;;;;;;2.40;2.30;;;22.40;40.80;;;;;;5080939;23;20263;-66
2022/04/27 13:35:44;;;;;;;2.40;2.30;;;22.40;40.90;;;;;;5033277;28;20220;-67
2022/04/27 13:38:11;;;;;;;2.45;2.28;;;22.40;41.00;;;;;;5042901;23;20327;-59